sensor_id;sensor_type;location;lat;lon;timestamp;P1;P2;P0
62778;PMS7003;48821;48.796;2.396;2023-02-13T00:00:55;48.20;38.60;26.00
62778;PMS7003;48821;48.796;2.396;2023-02-13T00:02:07;52.60;39.00;27.40
62778;PMS7003;48821;48.796;2.396;2023-02-13T00:03:19;58.33;42.00;26.33
62778;PMS7003;48821;48.796;2.396;2023-02-13T00:04:31;43.33;35.67;26.00
62778;PMS7003;48821;48.796;2.396;2023-02-13T00:05:43;48.67;39.67;26.00
62778;PMS7003;48821;48.796;2.396;2023-02-13T00:06:55;53.00;41.67;26.00
62778;PMS7003;48821;48.796;2.396;2023-02-13T00:08:07;51.67;40.33;27.67
62778;PMS7003;48821;48.796;2.396;2023-02-13T00:09:19;56.67;43.67;27.00
62778;PMS7003;48821;48.796;2.396;2023-02-13T00:10:31;56.60;43.60;29.00
62778;PMS7003;48821;48.796;2.396;2023-02-13T00:11:43;54.00;43.00;27.33
62778;PMS7003;48821;48.796;2.396;2023-02-13T00:12:55;51.67;37.67;25.33
62778;PMS7003;48821;48.796;2.396;2023-02-13T00:14:07;55.40;43.20;29.20
62778;PMS7003;48821;48.796;2.396;2023-02-13T00:15:19;51.80;41.00;27.00
62778;PMS7003;48821;48.796;2.396;2023-02-13T00:16:31;52.00;42.00;28.67
62778;PMS7003;48821;48.796;2.396;2023-02-13T00:17:43;50.33;42.00;27.33
62778;PMS7003;48821;48.796;2.396;2023-02-13T00:18:55;53.33;40.33;28.67
62778;PMS7003;48821;48.796;2.396;2023-02-13T00:20:07;52.00;43.00;27.67
62778;PMS7003;48821;48.796;2.396;2023-02-13T00:21:20;52.33;42.00;26.33
62778;PMS7003;48821;48.796;2.396;2023-02-13T00:22:35;48.67;40.00;26.67
62778;PMS7003;48821;48.796;2.396;2023-02-13T00:23:47;48.33;39.33;25.00
62778;PMS7003;48821;48.796;2.396;2023-02-13T00:24:59;56.00;44.67;28.67
62778;PMS7003;48821;48.796;2.396;2023-02-13T00:26:12;54.67;41.67;28.00
62778;PMS7003;48821;48.796;2.396;2023-02-13T00:27:24;50.00;39.33;26.33
62778;PMS7003;48821;48.796;2.396;2023-02-13T00:28:36;53.00;42.00;26.33
62778;PMS7003;48821;48.796;2.396;2023-02-13T00:29:48;51.67;41.33;28.00
62778;PMS7003;48821;48.796;2.396;2023-02-13T00:31:04;58.00;44.00;28.67
62778;PMS7003;48821;48.796;2.396;2023-02-13T00:32:18;48.00;39.33;25.67
62778;PMS7003;48821;48.796;2.396;2023-02-13T00:33:30;50.00;37.40;24.80
62778;PMS7003;48821;48.796;2.396;2023-02-13T00:34:42;54.67;44.00;30.00
62778;PMS7003;48821;48.796;2.396;2023-02-13T00:36:01;50.00;41.00;25.67
62778;PMS7003;48821;48.796;2.396;2023-02-13T00:37:20;50.67;42.00;25.67
62778;PMS7003;48821;48.796;2.396;2023-02-13T00:38:31;52.00;41.00;28.00
62778;PMS7003;48821;48.796;2.396;2023-02-13T00:39:43;51.33;40.33;25.33
62778;PMS7003;48821;48.796;2.396;2023-02-13T00:40:55;44.40;39.20;26.80
62778;PMS7003;48821;48.796;2.396;2023-02-13T00:42:07;42.67;35.00;21.00
62778;PMS7003;48821;48.796;2.396;2023-02-13T00:43:19;52.00;42.67;30.00
62778;PMS7003;48821;48.796;2.396;2023-02-13T00:44:31;44.00;37.20;25.80
62778;PMS7003;48821;48.796;2.396;2023-02-13T00:45:43;55.00;41.67;29.00
62778;PMS7003;48821;48.796;2.396;2023-02-13T00:46:55;48.67;41.00;27.67
62778;PMS7003;48821;48.796;2.396;2023-02-13T00:48:07;50.00;41.33;27.00
62778;PMS7003;48821;48.796;2.396;2023-02-13T00:49:19;56.67;42.67;28.33
62778;PMS7003;48821;48.796;2.396;2023-02-13T00:50:31;51.67;42.00;28.33
62778;PMS7003;48821;48.796;2.396;2023-02-13T00:51:43;49.67;40.00;25.00
62778;PMS7003;48821;48.796;2.396;2023-02-13T00:52:55;54.33;41.67;28.33
62778;PMS7003;48821;48.796;2.396;2023-02-13T00:54:07;52.33;43.67;30.00
62778;PMS7003;48821;48.796;2.396;2023-02-13T00:55:19;48.80;38.80;26.20
62778;PMS7003;48821;48.796;2.396;2023-02-13T00:56:31;44.40;39.20;27.20
62778;PMS7003;48821;48.796;2.396;2023-02-13T00:57:42;51.00;41.50;27.50
62778;PMS7003;48821;48.796;2.396;2023-02-13T00:58:54;51.67;40.67;26.67
62778;PMS7003;48821;48.796;2.396;2023-02-13T01:00:06;53.33;41.33;27.00
62778;PMS7003;48821;48.796;2.396;2023-02-13T01:01:18;52.67;41.00;26.67
62778;PMS7003;48821;48.796;2.396;2023-02-13T01:02:30;55.67;42.33;27.67
62778;PMS7003;48821;48.796;2.396;2023-02-13T01:03:42;55.00;42.67;25.67
62778;PMS7003;48821;48.796;2.396;2023-02-13T01:04:54;49.67;39.00;25.00
62778;PMS7003;48821;48.796;2.396;2023-02-13T01:06:06;53.00;39.67;28.67
62778;PMS7003;48821;48.796;2.396;2023-02-13T01:07:18;51.67;40.00;26.00
62778;PMS7003;48821;48.796;2.396;2023-02-13T01:08:30;53.33;40.00;26.67
62778;PMS7003;48821;48.796;2.396;2023-02-13T01:09:42;53.00;42.33;28.00
62778;PMS7003;48821;48.796;2.396;2023-02-13T01:10:54;46.67;40.00;25.00
62778;PMS7003;48821;48.796;2.396;2023-02-13T01:12:06;54.33;41.00;25.00
62778;PMS7003;48821;48.796;2.396;2023-02-13T01:13:18;55.00;41.80;27.00
62778;PMS7003;48821;48.796;2.396;2023-02-13T01:14:30;49.33;39.00;25.00
62778;PMS7003;48821;48.796;2.396;2023-02-13T01:15:42;51.40;37.20;24.40
62778;PMS7003;48821;48.796;2.396;2023-02-13T01:16:54;52.33;40.33;27.00
62778;PMS7003;48821;48.796;2.396;2023-02-13T01:18:06;51.00;41.33;26.67
62778;PMS7003;48821;48.796;2.396;2023-02-13T01:19:18;53.67;42.00;27.00
62778;PMS7003;48821;48.796;2.396;2023-02-13T01:20:30;57.00;43.33;27.33
62778;PMS7003;48821;48.796;2.396;2023-02-13T01:21:42;50.67;39.00;24.67
62778;PMS7003;48821;48.796;2.396;2023-02-13T01:22:54;48.33;36.67;24.67
62778;PMS7003;48821;48.796;2.396;2023-02-13T01:24:07;52.33;40.00;26.33
62778;PMS7003;48821;48.796;2.396;2023-02-13T01:25:19;45.00;36.80;22.00
62778;PMS7003;48821;48.796;2.396;2023-02-13T01:26:31;49.33;39.00;24.67
62778;PMS7003;48821;48.796;2.396;2023-02-13T01:27:43;51.20;39.00;25.80
62778;PMS7003;48821;48.796;2.396;2023-02-13T01:28:55;55.00;40.67;26.67
62778;PMS7003;48821;48.796;2.396;2023-02-13T01:30:09;49.33;39.33;27.00
62778;PMS7003;48821;48.796;2.396;2023-02-13T01:31:22;44.50;37.00;26.00
62778;PMS7003;48821;48.796;2.396;2023-02-13T01:32:34;50.00;40.00;24.00
62778;PMS7003;48821;48.796;2.396;2023-02-13T01:33:46;47.33;39.33;25.00
62778;PMS7003;48821;48.796;2.396;2023-02-13T01:34:58;54.20;42.00;27.40
62778;PMS7003;48821;48.796;2.396;2023-02-13T01:36:10;49.33;39.00;26.67
62778;PMS7003;48821;48.796;2.396;2023-02-13T01:37:24;51.00;40.00;26.67
62778;PMS7003;48821;48.796;2.396;2023-02-13T01:38:36;53.00;40.20;26.20
62778;PMS7003;48821;48.796;2.396;2023-02-13T01:39:48;48.50;40.00;27.00
62778;PMS7003;48821;48.796;2.396;2023-02-13T01:41:00;50.67;38.33;23.33
62778;PMS7003;48821;48.796;2.396;2023-02-13T01:42:16;49.00;39.33;26.00
62778;PMS7003;48821;48.796;2.396;2023-02-13T01:43:46;49.00;40.67;27.00
62778;PMS7003;48821;48.796;2.396;2023-02-13T01:45:01;50.33;39.67;26.33
62778;PMS7003;48821;48.796;2.396;2023-02-13T01:46:24;46.50;37.00;26.00
62778;PMS7003;48821;48.796;2.396;2023-02-13T01:47:46;43.00;37.00;27.00
62778;PMS7003;48821;48.796;2.396;2023-02-13T01:49:20;51.00;40.33;27.00
62778;PMS7003;48821;48.796;2.396;2023-02-13T01:50:39;41.00;36.67;24.00
62778;PMS7003;48821;48.796;2.396;2023-02-13T01:51:53;50.67;41.00;27.00
62778;PMS7003;48821;48.796;2.396;2023-02-13T01:53:07;46.33;39.00;25.33
62778;PMS7003;48821;48.796;2.396;2023-02-13T01:54:23;47.00;38.50;27.00
62778;PMS7003;48821;48.796;2.396;2023-02-13T01:55:45;51.00;41.00;26.00
62778;PMS7003;48821;48.796;2.396;2023-02-13T01:57:00;56.00;43.50;26.00
62778;PMS7003;48821;48.796;2.396;2023-02-13T01:58:15;41.50;37.50;26.00
62778;PMS7003;48821;48.796;2.396;2023-02-13T01:59:32;56.00;42.33;27.00
62778;PMS7003;48821;48.796;2.396;2023-02-13T02:00:54;53.67;40.33;27.00
62778;PMS7003;48821;48.796;2.396;2023-02-13T02:02:06;50.33;42.00;27.33
62778;PMS7003;48821;48.796;2.396;2023-02-13T02:03:19;52.00;41.67;27.00
62778;PMS7003;48821;48.796;2.396;2023-02-13T02:04:39;52.50;40.50;27.00
62778;PMS7003;48821;48.796;2.396;2023-02-13T02:05:52;51.50;37.50;25.00
62778;PMS7003;48821;48.796;2.396;2023-02-13T02:07:07;49.33;39.00;26.00
62778;PMS7003;48821;48.796;2.396;2023-02-13T02:08:23;44.67;39.33;25.00
62778;PMS7003;48821;48.796;2.396;2023-02-13T02:09:37;55.33;44.00;28.00
62778;PMS7003;48821;48.796;2.396;2023-02-13T02:10:50;56.00;43.00;27.00
62778;PMS7003;48821;48.796;2.396;2023-02-13T02:13:38;54.67;40.67;25.33
62778;PMS7003;48821;48.796;2.396;2023-02-13T02:14:51;56.00;44.67;29.33
62778;PMS7003;48821;48.796;2.396;2023-02-13T02:16:04;53.67;43.67;29.00
62778;PMS7003;48821;48.796;2.396;2023-02-13T02:17:16;53.00;42.00;27.00
62778;PMS7003;48821;48.796;2.396;2023-02-13T02:18:28;53.33;42.67;29.00
62778;PMS7003;48821;48.796;2.396;2023-02-13T02:19:45;50.67;41.67;27.00
62778;PMS7003;48821;48.796;2.396;2023-02-13T02:28:29;56.00;43.00;27.50
62778;PMS7003;48821;48.796;2.396;2023-02-13T02:33:01;57.00;44.67;27.00
62778;PMS7003;48821;48.796;2.396;2023-02-13T02:35:52;34.00;34.00;23.50
62778;PMS7003;48821;48.796;2.396;2023-02-13T02:41:34;55.33;43.33;26.00
62778;PMS7003;48821;48.796;2.396;2023-02-13T02:43:13;51.33;40.33;26.00
62778;PMS7003;48821;48.796;2.396;2023-02-13T02:45:51;57.67;44.00;27.00
62778;PMS7003;48821;48.796;2.396;2023-02-13T02:47:09;56.67;44.33;26.00
62778;PMS7003;48821;48.796;2.396;2023-02-13T02:48:50;54.67;42.33;27.00
62778;PMS7003;48821;48.796;2.396;2023-02-13T02:54:50;51.00;42.00;27.00
62778;PMS7003;48821;48.796;2.396;2023-02-13T02:56:35;55.33;42.00;27.67
62778;PMS7003;48821;48.796;2.396;2023-02-13T02:57:54;49.67;39.00;25.67
62778;PMS7003;48821;48.796;2.396;2023-02-13T02:59:34;53.33;44.33;28.33
62778;PMS7003;48821;48.796;2.396;2023-02-13T03:01:09;58.67;44.33;27.33
62778;PMS7003;48821;48.796;2.396;2023-02-13T03:02:43;62.67;45.33;30.33
62778;PMS7003;48821;48.796;2.396;2023-02-13T03:04:30;61.00;47.33;27.67
62778;PMS7003;48821;48.796;2.396;2023-02-13T03:06:11;55.33;43.67;28.67
62778;PMS7003;48821;48.796;2.396;2023-02-13T03:07:28;52.33;43.67;29.67
62778;PMS7003;48821;48.796;2.396;2023-02-13T03:08:41;55.67;43.33;27.33
62778;PMS7003;48821;48.796;2.396;2023-02-13T03:10:24;58.33;44.67;28.00
62778;PMS7003;48821;48.796;2.396;2023-02-13T03:11:57;52.00;41.00;27.00
62778;PMS7003;48821;48.796;2.396;2023-02-13T03:13:41;39.50;34.00;20.00
62778;PMS7003;48821;48.796;2.396;2023-02-13T03:14:56;55.00;40.00;26.50
62778;PMS7003;48821;48.796;2.396;2023-02-13T03:16:14;60.67;46.00;29.67
62778;PMS7003;48821;48.796;2.396;2023-02-13T03:17:49;52.33;40.67;27.00
62778;PMS7003;48821;48.796;2.396;2023-02-13T03:19:27;57.33;45.67;29.33
62778;PMS7003;48821;48.796;2.396;2023-02-13T03:21:10;54.33;43.00;26.00
62778;PMS7003;48821;48.796;2.396;2023-02-13T03:24:28;55.33;43.67;27.67
62778;PMS7003;48821;48.796;2.396;2023-02-13T03:27:07;55.67;44.00;28.00
62778;PMS7003;48821;48.796;2.396;2023-02-13T03:28:58;60.33;43.33;27.00
62778;PMS7003;48821;48.796;2.396;2023-02-13T03:34:36;58.00;44.00;27.67
62778;PMS7003;48821;48.796;2.396;2023-02-13T03:37:56;47.33;39.67;28.33
62778;PMS7003;48821;48.796;2.396;2023-02-13T03:39:19;59.00;42.00;27.00
62778;PMS7003;48821;48.796;2.396;2023-02-13T03:40:41;58.67;43.67;28.67
62778;PMS7003;48821;48.796;2.396;2023-02-13T03:43:44;61.00;45.00;29.33
62778;PMS7003;48821;48.796;2.396;2023-02-13T03:45:11;57.67;45.33;29.67
62778;PMS7003;48821;48.796;2.396;2023-02-13T03:46:46;56.67;45.00;29.67
62778;PMS7003;48821;48.796;2.396;2023-02-13T03:48:02;53.33;43.33;26.67
62778;PMS7003;48821;48.796;2.396;2023-02-13T03:49:21;50.00;42.00;27.00
62778;PMS7003;48821;48.796;2.396;2023-02-13T03:50:54;52.67;43.00;29.00
62778;PMS7003;48821;48.796;2.396;2023-02-13T03:52:11;48.67;40.00;26.00
62778;PMS7003;48821;48.796;2.396;2023-02-13T03:53:32;55.33;44.67;29.33
62778;PMS7003;48821;48.796;2.396;2023-02-13T03:54:49;59.33;43.00;27.00
62778;PMS7003;48821;48.796;2.396;2023-02-13T03:56:24;55.00;41.67;26.00
62778;PMS7003;48821;48.796;2.396;2023-02-13T03:57:57;57.00;45.33;28.33
62778;PMS7003;48821;48.796;2.396;2023-02-13T03:59:32;54.67;42.67;27.67
62778;PMS7003;48821;48.796;2.396;2023-02-13T04:00:50;52.00;39.00;25.67
62778;PMS7003;48821;48.796;2.396;2023-02-13T04:02:12;55.67;40.33;26.00
62778;PMS7003;48821;48.796;2.396;2023-02-13T04:03:29;56.00;42.00;27.67
62778;PMS7003;48821;48.796;2.396;2023-02-13T04:06:19;51.67;41.33;27.00
62778;PMS7003;48821;48.796;2.396;2023-02-13T04:07:34;52.00;41.00;26.00
62778;PMS7003;48821;48.796;2.396;2023-02-13T04:08:46;62.00;47.67;27.00
62778;PMS7003;48821;48.796;2.396;2023-02-13T04:09:59;53.33;41.00;27.00
62778;PMS7003;48821;48.796;2.396;2023-02-13T04:11:25;53.67;43.33;27.33
62778;PMS7003;48821;48.796;2.396;2023-02-13T04:15:36;51.00;40.33;27.00
62778;PMS7003;48821;48.796;2.396;2023-02-13T04:16:55;53.00;43.00;27.00
62778;PMS7003;48821;48.796;2.396;2023-02-13T04:18:15;55.00;40.67;27.00
62778;PMS7003;48821;48.796;2.396;2023-02-13T04:19:31;55.33;44.00;27.33
62778;PMS7003;48821;48.796;2.396;2023-02-13T04:20:42;54.50;41.00;25.50
62778;PMS7003;48821;48.796;2.396;2023-02-13T04:21:55;37.67;34.00;17.00
62778;PMS7003;48821;48.796;2.396;2023-02-13T04:23:09;51.67;39.67;25.00
62778;PMS7003;48821;48.796;2.396;2023-02-13T04:24:22;55.33;41.67;26.00
62778;PMS7003;48821;48.796;2.396;2023-02-13T04:25:34;53.67;41.67;26.00
62778;PMS7003;48821;48.796;2.396;2023-02-13T04:26:48;54.00;43.00;27.00
62778;PMS7003;48821;48.796;2.396;2023-02-13T04:28:00;56.00;43.33;30.00
62778;PMS7003;48821;48.796;2.396;2023-02-13T04:29:12;56.00;44.67;28.67
62778;PMS7003;48821;48.796;2.396;2023-02-13T04:30:24;61.00;44.00;26.00
62778;PMS7003;48821;48.796;2.396;2023-02-13T04:31:36;53.67;45.00;29.67
62778;PMS7003;48821;48.796;2.396;2023-02-13T04:32:48;50.00;43.00;28.33
62778;PMS7003;48821;48.796;2.396;2023-02-13T04:34:00;56.00;42.33;26.67
62778;PMS7003;48821;48.796;2.396;2023-02-13T04:35:12;56.00;44.33;30.00
62778;PMS7003;48821;48.796;2.396;2023-02-13T04:36:24;50.33;39.67;29.33
62778;PMS7003;48821;48.796;2.396;2023-02-13T04:37:36;60.00;45.67;29.67
62778;PMS7003;48821;48.796;2.396;2023-02-13T04:38:49;56.33;43.33;28.67
62778;PMS7003;48821;48.796;2.396;2023-02-13T04:40:01;53.67;41.33;27.00
62778;PMS7003;48821;48.796;2.396;2023-02-13T04:41:13;58.00;44.67;28.67
62778;PMS7003;48821;48.796;2.396;2023-02-13T04:42:25;53.33;42.67;27.00
62778;PMS7003;48821;48.796;2.396;2023-02-13T04:43:36;55.00;43.20;29.60
62778;PMS7003;48821;48.796;2.396;2023-02-13T04:44:48;55.67;45.00;29.67
62778;PMS7003;48821;48.796;2.396;2023-02-13T04:46:00;56.67;43.00;28.67
62778;PMS7003;48821;48.796;2.396;2023-02-13T04:47:12;56.33;45.33;30.00
62778;PMS7003;48821;48.796;2.396;2023-02-13T04:48:24;59.33;45.33;27.00
62778;PMS7003;48821;48.796;2.396;2023-02-13T04:49:36;51.00;42.00;27.67
62778;PMS7003;48821;48.796;2.396;2023-02-13T04:50:48;59.00;45.33;28.67
62778;PMS7003;48821;48.796;2.396;2023-02-13T04:52:00;52.67;41.33;27.00
62778;PMS7003;48821;48.796;2.396;2023-02-13T04:53:12;55.67;44.67;27.00
62778;PMS7003;48821;48.796;2.396;2023-02-13T04:54:24;57.67;46.67;29.33
62778;PMS7003;48821;48.796;2.396;2023-02-13T04:55:36;54.67;42.67;28.00
62778;PMS7003;48821;48.796;2.396;2023-02-13T04:56:48;51.67;41.00;26.33
62778;PMS7003;48821;48.796;2.396;2023-02-13T04:58:00;57.33;44.67;30.33
62778;PMS7003;48821;48.796;2.396;2023-02-13T04:59:12;54.00;41.33;27.33
62778;PMS7003;48821;48.796;2.396;2023-02-13T05:00:25;50.00;40.33;26.67
62778;PMS7003;48821;48.796;2.396;2023-02-13T05:01:38;52.33;41.33;27.33
62778;PMS7003;48821;48.796;2.396;2023-02-13T05:02:50;53.33;43.33;27.00
62778;PMS7003;48821;48.796;2.396;2023-02-13T05:04:02;55.33;43.00;27.00
62778;PMS7003;48821;48.796;2.396;2023-02-13T05:05:14;54.67;43.00;27.33
62778;PMS7003;48821;48.796;2.396;2023-02-13T05:06:26;53.67;43.00;29.67
62778;PMS7003;48821;48.796;2.396;2023-02-13T05:07:38;52.33;42.67;28.67
62778;PMS7003;48821;48.796;2.396;2023-02-13T05:08:50;56.00;45.00;27.67
62778;PMS7003;48821;48.796;2.396;2023-02-13T05:10:03;55.00;43.00;27.33
62778;PMS7003;48821;48.796;2.396;2023-02-13T05:11:15;54.33;43.67;25.00
62778;PMS7003;48821;48.796;2.396;2023-02-13T05:12:27;56.67;43.33;28.33
62778;PMS7003;48821;48.796;2.396;2023-02-13T05:13:39;54.00;42.00;28.33
62778;PMS7003;48821;48.796;2.396;2023-02-13T05:14:51;54.00;42.67;28.00
62778;PMS7003;48821;48.796;2.396;2023-02-13T05:16:03;54.40;38.80;25.00
62778;PMS7003;48821;48.796;2.396;2023-02-13T05:17:15;56.00;40.67;26.67
62778;PMS7003;48821;48.796;2.396;2023-02-13T05:18:26;57.00;44.67;30.33
62778;PMS7003;48821;48.796;2.396;2023-02-13T05:19:38;52.67;41.33;28.33
62778;PMS7003;48821;48.796;2.396;2023-02-13T05:20:50;56.00;41.67;26.00
62778;PMS7003;48821;48.796;2.396;2023-02-13T05:22:20;52.00;44.00;28.00
62778;PMS7003;48821;48.796;2.396;2023-02-13T05:23:50;50.00;41.00;26.33
62778;PMS7003;48821;48.796;2.396;2023-02-13T05:25:02;55.33;46.00;29.00
62778;PMS7003;48821;48.796;2.396;2023-02-13T05:26:14;51.33;41.00;26.67
62778;PMS7003;48821;48.796;2.396;2023-02-13T05:27:26;51.67;41.00;28.33
62778;PMS7003;48821;48.796;2.396;2023-02-13T05:28:38;51.33;41.33;29.00
62778;PMS7003;48821;48.796;2.396;2023-02-13T05:30:08;52.00;42.00;26.67
62778;PMS7003;48821;48.796;2.396;2023-02-13T05:31:20;60.00;44.00;27.67
62778;PMS7003;48821;48.796;2.396;2023-02-13T05:32:32;55.60;42.60;26.20
62778;PMS7003;48821;48.796;2.396;2023-02-13T05:33:44;54.67;44.00;27.67
62778;PMS7003;48821;48.796;2.396;2023-02-13T05:34:56;55.33;44.67;29.67
62778;PMS7003;48821;48.796;2.396;2023-02-13T05:36:08;56.67;45.00;28.00
62778;PMS7003;48821;48.796;2.396;2023-02-13T05:37:20;54.67;43.00;27.00
62778;PMS7003;48821;48.796;2.396;2023-02-13T05:38:32;53.00;41.00;26.67
62778;PMS7003;48821;48.796;2.396;2023-02-13T05:39:44;51.33;40.00;26.00
62778;PMS7003;48821;48.796;2.396;2023-02-13T05:40:59;56.00;43.67;27.00
62778;PMS7003;48821;48.796;2.396;2023-02-13T05:42:10;53.50;43.00;27.50
62778;PMS7003;48821;48.796;2.396;2023-02-13T05:43:22;52.00;42.67;29.33
62778;PMS7003;48821;48.796;2.396;2023-02-13T05:44:34;55.67;42.33;27.00
62778;PMS7003;48821;48.796;2.396;2023-02-13T05:45:46;53.67;45.67;30.67
62778;PMS7003;48821;48.796;2.396;2023-02-13T05:46:58;51.67;43.67;27.33
62778;PMS7003;48821;48.796;2.396;2023-02-13T05:48:10;54.67;44.33;27.00
62778;PMS7003;48821;48.796;2.396;2023-02-13T05:49:22;56.33;44.33;27.00
62778;PMS7003;48821;48.796;2.396;2023-02-13T05:50:34;56.00;44.00;29.33
62778;PMS7003;48821;48.796;2.396;2023-02-13T05:51:46;54.33;44.00;29.00
62778;PMS7003;48821;48.796;2.396;2023-02-13T05:52:58;53.33;44.33;29.33
62778;PMS7003;48821;48.796;2.396;2023-02-13T05:54:10;56.33;44.00;27.67
62778;PMS7003;48821;48.796;2.396;2023-02-13T05:55:21;55.00;43.67;30.00
62778;PMS7003;48821;48.796;2.396;2023-02-13T05:56:33;55.33;44.33;27.33
62778;PMS7003;48821;48.796;2.396;2023-02-13T05:57:45;51.67;41.00;29.33
62778;PMS7003;48821;48.796;2.396;2023-02-13T05:58:57;52.67;44.00;29.67
62778;PMS7003;48821;48.796;2.396;2023-02-13T06:00:09;59.33;47.00;30.00
62778;PMS7003;48821;48.796;2.396;2023-02-13T06:01:22;64.00;49.67;30.67
62778;PMS7003;48821;48.796;2.396;2023-02-13T06:02:34;53.67;42.33;28.00
62778;PMS7003;48821;48.796;2.396;2023-02-13T06:03:46;57.33;47.33;30.00
62778;PMS7003;48821;48.796;2.396;2023-02-13T06:04:58;53.67;44.33;29.00
62778;PMS7003;48821;48.796;2.396;2023-02-13T06:06:09;58.60;45.00;28.40
62778;PMS7003;48821;48.796;2.396;2023-02-13T06:07:21;58.33;45.33;29.00
62778;PMS7003;48821;48.796;2.396;2023-02-13T06:08:33;60.00;45.67;29.00
62778;PMS7003;48821;48.796;2.396;2023-02-13T06:09:45;54.33;43.33;27.00
62778;PMS7003;48821;48.796;2.396;2023-02-13T06:10:57;56.33;45.00;31.00
62778;PMS7003;48821;48.796;2.396;2023-02-13T06:12:09;56.33;45.00;30.67
62778;PMS7003;48821;48.796;2.396;2023-02-13T06:13:21;55.40;46.20;30.00
62778;PMS7003;48821;48.796;2.396;2023-02-13T06:14:32;61.00;47.00;30.67
62778;PMS7003;48821;48.796;2.396;2023-02-13T06:15:44;51.67;43.33;29.67
62778;PMS7003;48821;48.796;2.396;2023-02-13T06:16:56;56.33;41.67;29.67
62778;PMS7003;48821;48.796;2.396;2023-02-13T06:18:08;62.00;46.67;29.67
62778;PMS7003;48821;48.796;2.396;2023-02-13T06:19:20;52.00;42.00;26.67
62778;PMS7003;48821;48.796;2.396;2023-02-13T06:20:32;58.67;45.00;28.00
62778;PMS7003;48821;48.796;2.396;2023-02-13T06:21:44;59.33;46.00;30.67
62778;PMS7003;48821;48.796;2.396;2023-02-13T06:22:56;56.67;44.33;29.00
62778;PMS7003;48821;48.796;2.396;2023-02-13T06:24:08;58.67;46.00;31.33
62778;PMS7003;48821;48.796;2.396;2023-02-13T06:25:20;59.00;46.33;30.33
62778;PMS7003;48821;48.796;2.396;2023-02-13T06:26:33;57.33;46.67;31.00
62778;PMS7003;48821;48.796;2.396;2023-02-13T06:27:44;60.33;48.67;32.00
62778;PMS7003;48821;48.796;2.396;2023-02-13T06:28:56;61.67;49.00;32.00
62778;PMS7003;48821;48.796;2.396;2023-02-13T06:30:09;65.33;49.00;32.00
62778;PMS7003;48821;48.796;2.396;2023-02-13T06:31:21;63.67;46.67;32.00
62778;PMS7003;48821;48.796;2.396;2023-02-13T06:32:33;63.00;48.00;30.67
62778;PMS7003;48821;48.796;2.396;2023-02-13T06:33:45;61.33;49.67;31.00
62778;PMS7003;48821;48.796;2.396;2023-02-13T06:34:57;59.67;45.67;27.67
62778;PMS7003;48821;48.796;2.396;2023-02-13T06:36:09;60.33;45.00;27.67
62778;PMS7003;48821;48.796;2.396;2023-02-13T06:37:21;55.33;43.33;31.00
62778;PMS7003;48821;48.796;2.396;2023-02-13T06:38:33;58.67;46.00;30.67
62778;PMS7003;48821;48.796;2.396;2023-02-13T06:39:45;57.33;45.67;30.67
62778;PMS7003;48821;48.796;2.396;2023-02-13T06:40:58;57.00;44.67;30.67
62778;PMS7003;48821;48.796;2.396;2023-02-13T06:42:12;57.00;46.00;30.00
62778;PMS7003;48821;48.796;2.396;2023-02-13T06:43:23;54.00;44.00;30.00
62778;PMS7003;48821;48.796;2.396;2023-02-13T06:44:35;60.00;46.67;32.67
62778;PMS7003;48821;48.796;2.396;2023-02-13T06:45:47;58.67;46.67;31.00
62778;PMS7003;48821;48.796;2.396;2023-02-13T06:47:01;59.33;47.33;31.00
62778;PMS7003;48821;48.796;2.396;2023-02-13T06:48:13;63.67;48.67;31.00
62778;PMS7003;48821;48.796;2.396;2023-02-13T06:49:25;62.33;49.00;31.00
62778;PMS7003;48821;48.796;2.396;2023-02-13T06:50:37;64.67;48.00;31.00
62778;PMS7003;48821;48.796;2.396;2023-02-13T06:51:49;58.67;47.00;30.33
62778;PMS7003;48821;48.796;2.396;2023-02-13T06:53:01;58.00;45.33;30.00
62778;PMS7003;48821;48.796;2.396;2023-02-13T06:54:13;57.33;46.00;31.33
62778;PMS7003;48821;48.796;2.396;2023-02-13T06:55:26;64.00;49.67;32.00
62778;PMS7003;48821;48.796;2.396;2023-02-13T06:56:38;63.33;49.00;32.00
62778;PMS7003;48821;48.796;2.396;2023-02-13T06:57:50;62.67;49.33;32.00
62778;PMS7003;48821;48.796;2.396;2023-02-13T06:59:02;58.67;45.33;30.00
62778;PMS7003;48821;48.796;2.396;2023-02-13T07:00:15;55.67;41.00;26.00
62778;PMS7003;48821;48.796;2.396;2023-02-13T07:01:27;51.67;40.67;27.00
62778;PMS7003;48821;48.796;2.396;2023-02-13T07:02:39;62.67;47.67;32.00
62778;PMS7003;48821;48.796;2.396;2023-02-13T07:03:51;57.67;47.00;30.00
62778;PMS7003;48821;48.796;2.396;2023-02-13T07:05:03;60.00;47.00;31.00
62778;PMS7003;48821;48.796;2.396;2023-02-13T07:06:16;60.33;46.00;30.67
62778;PMS7003;48821;48.796;2.396;2023-02-13T07:07:31;62.67;50.00;32.00
62778;PMS7003;48821;48.796;2.396;2023-02-13T07:08:46;65.33;48.67;31.33
62778;PMS7003;48821;48.796;2.396;2023-02-13T07:09:58;61.67;47.67;30.00
62778;PMS7003;48821;48.796;2.396;2023-02-13T07:11:19;58.33;48.00;31.00
62778;PMS7003;48821;48.796;2.396;2023-02-13T07:12:32;61.00;47.33;31.00
62778;PMS7003;48821;48.796;2.396;2023-02-13T07:13:44;69.00;50.67;33.00
62778;PMS7003;48821;48.796;2.396;2023-02-13T07:14:56;64.00;50.33;31.00
62778;PMS7003;48821;48.796;2.396;2023-02-13T07:16:08;53.00;44.67;30.00
62778;PMS7003;48821;48.796;2.396;2023-02-13T07:17:20;63.67;50.67;32.33
62778;PMS7003;48821;48.796;2.396;2023-02-13T07:18:32;60.00;47.00;30.33
62778;PMS7003;48821;48.796;2.396;2023-02-13T07:19:44;64.67;49.33;31.00
62778;PMS7003;48821;48.796;2.396;2023-02-13T07:20:58;62.88;49.25;32.25
62778;PMS7003;48821;48.796;2.396;2023-02-13T07:22:10;61.00;46.00;30.33
62778;PMS7003;48821;48.796;2.396;2023-02-13T07:23:22;64.67;48.67;30.67
62778;PMS7003;48821;48.796;2.396;2023-02-13T07:24:34;62.33;47.67;30.33
62778;PMS7003;48821;48.796;2.396;2023-02-13T07:25:48;60.00;49.00;31.33
62778;PMS7003;48821;48.796;2.396;2023-02-13T07:27:00;58.33;46.33;31.67
62778;PMS7003;48821;48.796;2.396;2023-02-13T07:28:12;61.00;47.67;32.00
62778;PMS7003;48821;48.796;2.396;2023-02-13T07:29:24;66.67;50.67;31.33
62778;PMS7003;48821;48.796;2.396;2023-02-13T07:30:36;64.33;50.67;31.00
62778;PMS7003;48821;48.796;2.396;2023-02-13T07:31:48;60.33;48.00;30.00
62778;PMS7003;48821;48.796;2.396;2023-02-13T07:33:01;64.67;50.00;32.33
62778;PMS7003;48821;48.796;2.396;2023-02-13T07:34:13;58.00;45.00;27.00
62778;PMS7003;48821;48.796;2.396;2023-02-13T07:35:25;62.00;51.33;33.00
62778;PMS7003;48821;48.796;2.396;2023-02-13T07:36:37;64.33;50.33;32.00
62778;PMS7003;48821;48.796;2.396;2023-02-13T07:37:49;63.67;49.00;32.00
62778;PMS7003;48821;48.796;2.396;2023-02-13T07:39:02;63.67;47.33;32.00
62778;PMS7003;48821;48.796;2.396;2023-02-13T07:40:14;62.00;48.33;32.00
62778;PMS7003;48821;48.796;2.396;2023-02-13T07:41:26;71.80;53.00;34.20